This is the latest recevied weather packets stored in our database for station/object LRBM. If no packets are shown the sender has not sent any weather packets the latest 10 day(s).
| Time | Temp. | Humidity | Pressure | Rain* | Wind** | Luminosity | Snow |
|---|---|---|---|---|---|---|---|
| 1777564116 | 12.78° C | 26% | 1023 hPa | - | - | - | - |
| 1777563216 | 12.78° C | 26% | 1023 hPa | - | - | - | - |
| 1777562315 | 13.89° C | 23% | 1023 hPa | - | - | - | - |
| 1777561416 | 13.89° C | 23% | 1023 hPa | - | - | - | - |
| 1777560515 | 13.89° C | 23% | 1023 hPa | - | - | - | - |
| 1777559615 | 13.89° C | 23% | 1023 hPa | - | - | - | - |
| 1777558716 | 13.89° C | 25% | 1023 hPa | - | - | - | - |
| 1777557815 | 13.89° C | 25% | 1023 hPa | - | - | - | - |
| 1777556915 | 13.89° C | 25% | 1023 hPa | - | - | - | - |
| 1777556015 | 13.89° C | 25% | 1023 hPa | - | - | - | - |
| 1777555115 | 12.78° C | 24% | 1024 hPa | - | - | - | - |
| 1777554216 | 12.78° C | 24% | 1024 hPa | - | - | - | - |
| 1777553316 | 15° C | 23% | 1024 hPa | - | - | - | - |
| 1777552417 | 15° C | 23% | 1024 hPa | - | - | - | - |
| 1777551512 | 13.89° C | 25% | 1024 hPa | - | - | - | - |
| 1777550615 | 13.89° C | 25% | 1024 hPa | - | - | - | - |
| 1777549715 | 12.78° C | 26% | 1024 hPa | - | - | - | - |
| 1777548815 | 12.78° C | 26% | 1024 hPa | - | - | - | - |
| 1777547909 | 12.78° C | 26% | 1024 hPa | - | - | - | - |
| 1777547016 | 12.78° C | 26% | 1024 hPa | - | - | - | - |
| 1777546115 | 12.22° C | 30% | 1025 hPa | - | - | - | - |
| 1777545217 | 12.22° C | 30% | 1025 hPa | - | - | - | - |
| 1777544338 | 12.22° C | 28% | 1025 hPa | - | - | - | - |
| 1777543413 | 12.22° C | 28% | 1025 hPa | - | - | - | - |
| 1777542516 | 12.22° C | 28% | 1025 hPa | - | - | - | - |
* Rain since midnight (hover to see other rain measurements)
** Current wind speed in m/s (hover to see current wind gust speed)